Aviation Digital Data Service (ADDS)

Output produced by METARs form (0551 UTC 16 February 2019)
found at http://www.aviationweather.gov/metar/data/
 
METAR text: OPRN 160530Z 00000KT 7000 HZ NSC 16/07 Q1021 NOSIG RMK A3017
Conditions at: OPRN (ISLAMABAD (CIV/M, PK) observed 0530 UTC 16 February 2019
Temperature: 16.0°C (61°F)
Dewpoint: 7.0°C (45°F) [RH = 55%]
Pressure (altimeter): 30.15 inches Hg (1021.0 mb)
Winds: calm
Visibility: 4 miles ( 7 km)
Ceiling: at least 12,000 feet AGL
Clouds: sky clear below 12,000 feet AGL
Weather: HZ  (haze)

METAR text: OPRN 160500Z 00000KT 7000 HZ NSC 14/06 Q1021 NOSIG RMK A3017
Conditions at: OPRN (ISLAMABAD (CIV/M, PK) observed 0500 UTC 16 February 2019
Temperature: 14.0°C (57°F)
Dewpoint: 6.0°C (43°F) [RH = 58%]
Pressure (altimeter): 30.15 inches Hg (1021.0 mb)
Winds: calm
Visibility: 4 miles ( 7 km)
Ceiling: at least 12,000 feet AGL
Clouds: sky clear below 12,000 feet AGL
Weather: HZ  (haze)

METAR text: OPRN 160430Z 00000KT 5000 HZ NSC 12/07 Q1021 NOSIG RMK A3018
Conditions at: OPRN (ISLAMABAD (CIV/M, PK) observed 0430 UTC 16 February 2019
Temperature: 12.0°C (54°F)
Dewpoint: 7.0°C (45°F) [RH = 71%]
Pressure (altimeter): 30.15 inches Hg (1021.0 mb)
Winds: calm
Visibility: 3 miles ( 5 km)
Ceiling: at least 12,000 feet AGL
Clouds: sky clear below 12,000 feet AGL
Weather: HZ  (haze)

METAR text: OPRN 160400Z 00000KT 5000 HZ NSC 10/05 Q1021 NOSIG RMK A3017
Conditions at: OPRN (ISLAMABAD (CIV/M, PK) observed 0400 UTC 16 February 2019
Temperature: 10.0°C (50°F)
Dewpoint: 5.0°C (41°F) [RH = 71%]
Pressure (altimeter): 30.15 inches Hg (1021.0 mb)
Winds: calm
Visibility: 3 miles ( 5 km)
Ceiling: at least 12,000 feet AGL
Clouds: sky clear below 12,000 feet AGL
Weather: HZ  (haze)

METAR text: OPRN 160330Z 00000KT 5000 HZ NSC 10/05 Q1021 NOSIG RMK A3016
Conditions at: OPRN (ISLAMABAD (CIV/M, PK) observed 0330 UTC 16 February 2019
Temperature: 10.0°C (50°F)
Dewpoint: 5.0°C (41°F) [RH = 71%]
Pressure (altimeter): 30.15 inches Hg (1021.0 mb)
Winds: calm
Visibility: 3 miles ( 5 km)
Ceiling: at least 12,000 feet AGL
Clouds: sky clear below 12,000 feet AGL
Weather: HZ  (haze)

METAR text: OPRN 160300Z 00000KT 5000 BR NSC 08/05 Q1020 NOSIG RMK A3014
Conditions at: OPRN (ISLAMABAD (CIV/M, PK) observed 0300 UTC 16 February 2019
Temperature: 8.0°C (46°F)
Dewpoint: 5.0°C (41°F) [RH = 81%]
Pressure (altimeter): 30.12 inches Hg (1020.0 mb)
Winds: calm
Visibility: 3 miles ( 5 km)
Ceiling: at least 12,000 feet AGL
Clouds: sky clear below 12,000 feet AGL
Weather: BR  (mist)

METAR text: OPRN 160100Z 00000KT 4000 BR NSC 07/06 Q1019 NOSIG RMK A3010
Conditions at: OPRN (ISLAMABAD (CIV/M, PK) observed 0100 UTC 16 February 2019
Temperature: 7.0°C (45°F)
Dewpoint: 6.0°C (43°F) [RH = 93%]
Pressure (altimeter): 30.09 inches Hg (1019.0 mb)
Winds: calm
Visibility: 2.49 miles (4.01 km)
Ceiling: at least 12,000 feet AGL
Clouds: sky clear below 12,000 feet AGL
Weather: BR  (mist)

METAR text: OPRN 152300Z 00000KT 4000 BR NSC 08/06 Q1018 NOSIG RMK A3008
Conditions at: OPRN (ISLAMABAD (CIV/M, PK) observed 2300 UTC 15 February 2019
Temperature: 8.0°C (46°F)
Dewpoint: 6.0°C (43°F) [RH = 87%]
Pressure (altimeter): 30.06 inches Hg (1018.0 mb)
Winds: calm
Visibility: 2.49 miles (4.01 km)
Ceiling: at least 12,000 feet AGL
Clouds: sky clear below 12,000 feet AGL
Weather: BR  (mist)

METAR text: OPRN 152100Z 00000KT 5000 HZ NSC 09/07 Q1018 NOSIG RMK A3009
Conditions at: OPRN (ISLAMABAD (CIV/M, PK) observed 2100 UTC 15 February 2019
Temperature: 9.0°C (48°F)
Dewpoint: 7.0°C (45°F) [RH = 87%]
Pressure (altimeter): 30.06 inches Hg (1018.0 mb)
Winds: calm
Visibility: 3 miles ( 5 km)
Ceiling: at least 12,000 feet AGL
Clouds: sky clear below 12,000 feet AGL
Weather: HZ  (haze)

METAR text: OPRN 152000Z 00000KT 5000 HZ NSC 10/08 Q1019 NOSIG RMK A3009
Conditions at: OPRN (ISLAMABAD (CIV/M, PK) observed 2000 UTC 15 February 2019
Temperature: 10.0°C (50°F)
Dewpoint: 8.0°C (46°F) [RH = 87%]
Pressure (altimeter): 30.09 inches Hg (1019.0 mb)
Winds: calm
Visibility: 3 miles ( 5 km)
Ceiling: at least 12,000 feet AGL
Clouds: sky clear below 12,000 feet AGL
Weather: HZ  (haze)

METAR text: OPRN 151930Z 00000KT 5000 HZ NSC 10/08 Q1019 NOSIG RMK A3009
Conditions at: OPRN (ISLAMABAD (CIV/M, PK) observed 1930 UTC 15 February 2019
Temperature: 10.0°C (50°F)
Dewpoint: 8.0°C (46°F) [RH = 87%]
Pressure (altimeter): 30.09 inches Hg (1019.0 mb)
Winds: calm
Visibility: 3 miles ( 5 km)
Ceiling: at least 12,000 feet AGL
Clouds: sky clear below 12,000 feet AGL
Weather: HZ  (haze)

METAR text: OPRN 151900Z 00000KT 7000 NSC 11/08 Q1019 NOSIG RMK A3009
Conditions at: OPRN (ISLAMABAD (CIV/M, PK) observed 1900 UTC 15 February 2019
Temperature: 11.0°C (52°F)
Dewpoint: 8.0°C (46°F) [RH = 82%]
Pressure (altimeter): 30.09 inches Hg (1019.0 mb)
Winds: calm
Visibility: 4 miles ( 7 km)
Ceiling: at least 12,000 feet AGL
Clouds: sky clear below 12,000 feet AGL
Weather: no significant weather observed at this time

METAR text: OPRN 151800Z 00000KT 7000 NSC 11/07 Q1019 NOSIG RMK A3009
Conditions at: OPRN (ISLAMABAD (CIV/M, PK) observed 1800 UTC 15 February 2019
Temperature: 11.0°C (52°F)
Dewpoint: 7.0°C (45°F) [RH = 76%]
Pressure (altimeter): 30.09 inches Hg (1019.0 mb)
Winds: calm
Visibility: 4 miles ( 7 km)
Ceiling: at least 12,000 feet AGL
Clouds: sky clear below 12,000 feet AGL
Weather: no significant weather observed at this time

METAR text: OPRN 151730Z 00000KT CAVOK 11/07 Q1019 NOSIG RMK A3009
Conditions at: OPRN (ISLAMABAD (CIV/M, PK) observed 1730 UTC 15 February 2019
Temperature: 11.0°C (52°F)
Dewpoint: 7.0°C (45°F) [RH = 76%]
Pressure (altimeter): 30.09 inches Hg (1019.0 mb)
Winds: calm
Visibility: 6 or more miles (10+ km)
Ceiling: ceiling and visibility are OK
Clouds: unknown
Weather: no significant weather observed at this time

METAR text: OPRN 151700Z 00000KT CAVOK 12/07 Q1018 NOSIG RMK A3009
Conditions at: OPRN (ISLAMABAD (CIV/M, PK) observed 1700 UTC 15 February 2019
Temperature: 12.0°C (54°F)
Dewpoint: 7.0°C (45°F) [RH = 71%]
Pressure (altimeter): 30.06 inches Hg (1018.0 mb)
Winds: calm
Visibility: 6 or more miles (10+ km)
Ceiling: ceiling and visibility are OK
Clouds: unknown
Weather: no significant weather observed at this time

METAR text: OPRN 151630Z 00000KT CAVOK 12/07 Q1018 NOSIG RMK A3009
Conditions at: OPRN (ISLAMABAD (CIV/M, PK) observed 1630 UTC 15 February 2019
Temperature: 12.0°C (54°F)
Dewpoint: 7.0°C (45°F) [RH = 71%]
Pressure (altimeter): 30.06 inches Hg (1018.0 mb)
Winds: calm
Visibility: 6 or more miles (10+ km)
Ceiling: ceiling and visibility are OK
Clouds: unknown
Weather: no significant weather observed at this time

METAR text: OPRN 151600Z 31004KT CAVOK 13/08 Q1018 NOSIG RMK A3008
Conditions at: OPRN (ISLAMABAD (CIV/M, PK) observed 1600 UTC 15 February 2019
Temperature: 13.0°C (55°F)
Dewpoint: 8.0°C (46°F) [RH = 72%]
Pressure (altimeter): 30.06 inches Hg (1018.0 mb)
Winds: from the NW (310 degrees) at 5 MPH (4 knots; 2.1 m/s)
Visibility: 6 or more miles (10+ km)
Ceiling: ceiling and visibility are OK
Clouds: unknown
Weather: no significant weather observed at this time

METAR text: OPRN 151300Z 31012KT 9999 FEW040 16/09 Q1017 NOSIG RMK A3004
Conditions at: OPRN (ISLAMABAD (CIV/M, PK) observed 1300 UTC 15 February 2019
Temperature: 16.0°C (61°F)
Dewpoint: 9.0°C (48°F) [RH = 63%]
Pressure (altimeter): 30.03 inches Hg (1017.0 mb)
Winds: from the NW (310 degrees) at 14 MPH (12 knots; 6.2 m/s)
Visibility: 6 or more miles (10+ km)
Ceiling: at least 12,000 feet AGL
Clouds: few clouds at 4000 feet AGL
Weather: no significant weather observed at this time

METAR text: OPRN 151200Z 31012KT 9999 FEW040 17/09 Q1017 NOSIG RMK A3004
Conditions at: OPRN (ISLAMABAD (CIV/M, PK) observed 1200 UTC 15 February 2019
Temperature: 17.0°C (63°F)
Dewpoint: 9.0°C (48°F) [RH = 59%]
Pressure (altimeter): 30.03 inches Hg (1017.0 mb)
Winds: from the NW (310 degrees) at 14 MPH (12 knots; 6.2 m/s)
Visibility: 6 or more miles (10+ km)
Ceiling: at least 12,000 feet AGL
Clouds: few clouds at 4000 feet AGL
Weather: no significant weather observed at this time

METAR text: OPRN 151100Z 23014KT 9999 FEW040 18/09 Q1017 NOSIG RMK A3005
Conditions at: OPRN (ISLAMABAD (CIV/M, PK) observed 1100 UTC 15 February 2019
Temperature: 18.0°C (64°F)
Dewpoint: 9.0°C (48°F) [RH = 56%]
Pressure (altimeter): 30.03 inches Hg (1017.0 mb)
Winds: from the SW (230 degrees) at 16 MPH (14 knots; 7.2 m/s)
Visibility: 6 or more miles (10+ km)
Ceiling: at least 12,000 feet AGL
Clouds: few clouds at 4000 feet AGL
Weather: no significant weather observed at this time

METAR text: OPRN 151030Z 23014KT 9999 FEW040 18/09 Q1017 NOSIG RMK A3005
Conditions at: OPRN (ISLAMABAD (CIV/M, PK) observed 1030 UTC 15 February 2019
Temperature: 18.0°C (64°F)
Dewpoint: 9.0°C (48°F) [RH = 56%]
Pressure (altimeter): 30.03 inches Hg (1017.0 mb)
Winds: from the SW (230 degrees) at 16 MPH (14 knots; 7.2 m/s)
Visibility: 6 or more miles (10+ km)
Ceiling: at least 12,000 feet AGL
Clouds: few clouds at 4000 feet AGL
Weather: no significant weather observed at this time

METAR text: OPRN 151000Z 23013KT 9999 FEW040 18/09 Q1018 NOSIG RMK A3006
Conditions at: OPRN (ISLAMABAD (CIV/M, PK) observed 1000 UTC 15 February 2019
Temperature: 18.0°C (64°F)
Dewpoint: 9.0°C (48°F) [RH = 56%]
Pressure (altimeter): 30.06 inches Hg (1018.0 mb)
Winds: from the SW (230 degrees) at 15 MPH (13 knots; 6.7 m/s)
Visibility: 6 or more miles (10+ km)
Ceiling: at least 12,000 feet AGL
Clouds: few clouds at 4000 feet AGL
Weather: no significant weather observed at this time

METAR text: OPRN 150930Z 23013KT 7000 FEW040 18/09 Q1018 NOSIG RMK A3007
Conditions at: OPRN (ISLAMABAD (CIV/M, PK) observed 0930 UTC 15 February 2019
Temperature: 18.0°C (64°F)
Dewpoint: 9.0°C (48°F) [RH = 56%]
Pressure (altimeter): 30.06 inches Hg (1018.0 mb)
Winds: from the SW (230 degrees) at 15 MPH (13 knots; 6.7 m/s)
Visibility: 4 miles ( 7 km)
Ceiling: at least 12,000 feet AGL
Clouds: few clouds at 4000 feet AGL
Weather: no significant weather observed at this time

METAR text: OPRN 150900Z 23010KT 7000 FEW040 18/09 Q1018 NOSIG RMK A3007
Conditions at: OPRN (ISLAMABAD (CIV/M, PK) observed 0900 UTC 15 February 2019
Temperature: 18.0°C (64°F)
Dewpoint: 9.0°C (48°F) [RH = 56%]
Pressure (altimeter): 30.06 inches Hg (1018.0 mb)
Winds: from the SW (230 degrees) at 12 MPH (10 knots; 5.1 m/s)
Visibility: 4 miles ( 7 km)
Ceiling: at least 12,000 feet AGL
Clouds: few clouds at 4000 feet AGL
Weather: no significant weather observed at this time

METAR text: OPRN 150800Z 27010KT 7000 FEW040 17/10 Q1019 NOSIG RMK A3010
Conditions at: OPRN (ISLAMABAD (CIV/M, PK) observed 0800 UTC 15 February 2019
Temperature: 17.0°C (63°F)
Dewpoint: 10.0°C (50°F) [RH = 63%]
Pressure (altimeter): 30.09 inches Hg (1019.0 mb)
Winds: from the W (270 degrees) at 12 MPH (10 knots; 5.1 m/s)
Visibility: 4 miles ( 7 km)
Ceiling: at least 12,000 feet AGL
Clouds: few clouds at 4000 feet AGL
Weather: no significant weather observed at this time

METAR text: OPRN 150730Z 27008KT 7000 FEW040 16/10 Q1019 NOSIG RMK A3012
Conditions at: OPRN (ISLAMABAD (CIV/M, PK) observed 0730 UTC 15 February 2019
Temperature: 16.0°C (61°F)
Dewpoint: 10.0°C (50°F) [RH = 68%]
Pressure (altimeter): 30.09 inches Hg (1019.0 mb)
Winds: from the W (270 degrees) at 9 MPH (8 knots; 4.1 m/s)
Visibility: 4 miles ( 7 km)
Ceiling: at least 12,000 feet AGL
Clouds: few clouds at 4000 feet AGL
Weather: no significant weather observed at this time

METAR text: OPRN 150700Z 23004KT 5000 FEW040 16/10 Q1020 NOSIG RMK A3013
Conditions at: OPRN (ISLAMABAD (CIV/M, PK) observed 0700 UTC 15 February 2019
Temperature: 16.0°C (61°F)
Dewpoint: 10.0°C (50°F) [RH = 68%]
Pressure (altimeter): 30.12 inches Hg (1020.0 mb)
Winds: from the SW (230 degrees) at 5 MPH (4 knots; 2.1 m/s)
Visibility: 3 miles ( 5 km)
Ceiling: at least 12,000 feet AGL
Clouds: few clouds at 4000 feet AGL
Weather: no significant weather observed at this time

METAR text: OPRN 150630Z 23004KT 5000 FEW040 16/10 Q1020 NOSIG RMK A3014
Conditions at: OPRN (ISLAMABAD (CIV/M, PK) observed 0630 UTC 15 February 2019
Temperature: 16.0°C (61°F)
Dewpoint: 10.0°C (50°F) [RH = 68%]
Pressure (altimeter): 30.12 inches Hg (1020.0 mb)
Winds: from the SW (230 degrees) at 5 MPH (4 knots; 2.1 m/s)
Visibility: 3 miles ( 5 km)
Ceiling: at least 12,000 feet AGL
Clouds: few clouds at 4000 feet AGL
Weather: no significant weather observed at this time

METAR text: OPRN 150530Z 23004KT 4000 HZ FEW040 15/10 Q1021 NOSIG RMK A3015
Conditions at: OPRN (ISLAMABAD (CIV/M, PK) observed 0530 UTC 15 February 2019
Temperature: 15.0°C (59°F)
Dewpoint: 10.0°C (50°F) [RH = 72%]
Pressure (altimeter): 30.15 inches Hg (1021.0 mb)
Winds: from the SW (230 degrees) at 5 MPH (4 knots; 2.1 m/s)
Visibility: 2.49 miles (4.01 km)
Ceiling: at least 12,000 feet AGL
Clouds: few clouds at 4000 feet AGL
Weather: HZ  (haze)

METAR text: OPRN 150500Z 23004KT 2100 HZ SCT070 12/08 Q1020 TEMPO 1500 BR RMK A3014
Conditions at: OPRN (ISLAMABAD (CIV/M, PK) observed 0500 UTC 15 February 2019
Temperature: 12.0°C (54°F)
Dewpoint: 8.0°C (46°F) [RH = 76%]
Pressure (altimeter): 30.12 inches Hg (1020.0 mb)
Winds: from the SW (230 degrees) at 5 MPH (4 knots; 2.1 m/s)
Visibility: 1.30 miles (2.09 km)
Ceiling: at least 12,000 feet AGL
Clouds: scattered clouds at 7000 feet AGL
Weather: HZ  (haze)

METAR text: OPRN 150430Z 27004KT 2100 BR SCT078 11/08 Q1020 TEMPO 1500 BR RMK A3014
Conditions at: OPRN (ISLAMABAD (CIV/M, PK) observed 0430 UTC 15 February 2019
Temperature: 11.0°C (52°F)
Dewpoint: 8.0°C (46°F) [RH = 82%]
Pressure (altimeter): 30.12 inches Hg (1020.0 mb)
Winds: from the W (270 degrees) at 5 MPH (4 knots; 2.1 m/s)
Visibility: 1.30 miles (2.09 km)
Ceiling: at least 12,000 feet AGL
Clouds: scattered clouds at 7800 feet AGL
Weather: BR  (mist)

METAR text: OPRN 150400Z 23004KT 1800 BR FEW055 SCT075 10/08 Q1020 TEMPO 1000 BR RMK A3013
Conditions at: OPRN (ISLAMABAD (CIV/M, PK) observed 0400 UTC 15 February 2019
Temperature: 10.0°C (50°F)
Dewpoint: 8.0°C (46°F) [RH = 87%]
Pressure (altimeter): 30.12 inches Hg (1020.0 mb)
Winds: from the SW (230 degrees) at 5 MPH (4 knots; 2.1 m/s)
Visibility: 1.12 miles (1.80 km)
Ceiling: at least 12,000 feet AGL
Clouds: few clouds at 5500 feet AGL
scattered clouds at 7500 feet AGL
Weather: BR  (mist)

METAR text: OPRN 150330Z 00000KT 1800 BR FEW040 SCT080 09/08 Q1019 TEMPO 1000 RMK A3011
Conditions at: OPRN (ISLAMABAD (CIV/M, PK) observed 0330 UTC 15 February 2019
Temperature: 9.0°C (48°F)
Dewpoint: 8.0°C (46°F) [RH = 93%]
Pressure (altimeter): 30.09 inches Hg (1019.0 mb)
Winds: calm
Visibility: 1.12 miles (1.80 km)
Ceiling: at least 12,000 feet AGL
Clouds: few clouds at 4000 feet AGL
scattered clouds at 8000 feet AGL
Weather: BR  (mist)

METAR text: OPRN 150300Z 00000KT 1800 BR FEW040 SCT080 09/08 Q1019 TEMPO 1000 RMK A3011
Conditions at: OPRN (ISLAMABAD (CIV/M, PK) observed 0300 UTC 15 February 2019
Temperature: 9.0°C (48°F)
Dewpoint: 8.0°C (46°F) [RH = 93%]
Pressure (altimeter): 30.09 inches Hg (1019.0 mb)
Winds: calm
Visibility: 1.12 miles (1.80 km)
Ceiling: at least 12,000 feet AGL
Clouds: few clouds at 4000 feet AGL
scattered clouds at 8000 feet AGL
Weather: BR  (mist)

METAR text: OPRN 150230Z 00000KT 2100 BR SCT077 09/08 Q1019 TEMPO 1500 RMK A3009
Conditions at: OPRN (ISLAMABAD (CIV/M, PK) observed 0230 UTC 15 February 2019
Temperature: 9.0°C (48°F)
Dewpoint: 8.0°C (46°F) [RH = 93%]
Pressure (altimeter): 30.09 inches Hg (1019.0 mb)
Winds: calm
Visibility: 1.30 miles (2.09 km)
Ceiling: at least 12,000 feet AGL
Clouds: scattered clouds at 7700 feet AGL
Weather: BR  (mist)

METAR text: OPRN 150130Z 27006KT 4000 BR BKN050 09/08 Q1018 TEMPO 3000 BR RMK A3007
Conditions at: OPRN (ISLAMABAD (CIV/M, PK) observed 0130 UTC 15 February 2019
Temperature: 9.0°C (48°F)
Dewpoint: 8.0°C (46°F) [RH = 93%]
Pressure (altimeter): 30.06 inches Hg (1018.0 mb)
Winds: from the W (270 degrees) at 7 MPH (6 knots; 3.1 m/s)
Visibility: 2.49 miles (4.01 km)
Ceiling: 5000 feet AGL
Clouds: broken clouds at 5000 feet AGL
Weather: BR  (mist)

METAR text: OPRN 150100Z 27006KT 4000 BR SCT050 09/08 Q1018 TEMPO 3000 BR RMK A3007
Conditions at: OPRN (ISLAMABAD (CIV/M, PK) observed 0100 UTC 15 February 2019
Temperature: 9.0°C (48°F)
Dewpoint: 8.0°C (46°F) [RH = 93%]
Pressure (altimeter): 30.06 inches Hg (1018.0 mb)
Winds: from the W (270 degrees) at 7 MPH (6 knots; 3.1 m/s)
Visibility: 2.49 miles (4.01 km)
Ceiling: at least 12,000 feet AGL
Clouds: scattered clouds at 5000 feet AGL
Weather: BR  (mist)

METAR text: OPRN 150000Z 27006KT 4000 BR SCT050 09/08 Q1018 TEMPO 3000 BR RMK A3007
Conditions at: OPRN (ISLAMABAD (CIV/M, PK) observed 0000 UTC 15 February 2019
Temperature: 9.0°C (48°F)
Dewpoint: 8.0°C (46°F) [RH = 93%]
Pressure (altimeter): 30.06 inches Hg (1018.0 mb)
Winds: from the W (270 degrees) at 7 MPH (6 knots; 3.1 m/s)
Visibility: 2.49 miles (4.01 km)
Ceiling: at least 12,000 feet AGL
Clouds: scattered clouds at 5000 feet AGL
Weather: BR  (mist)

METAR text: OPRN 142330Z 27006KT 4000 BR SCT050 09/08 Q1018 TEMPO 3000 BR RMK A3007
Conditions at: OPRN (ISLAMABAD (CIV/M, PK) observed 2330 UTC 14 February 2019
Temperature: 9.0°C (48°F)
Dewpoint: 8.0°C (46°F) [RH = 93%]
Pressure (altimeter): 30.06 inches Hg (1018.0 mb)
Winds: from the W (270 degrees) at 7 MPH (6 knots; 3.1 m/s)
Visibility: 2.49 miles (4.01 km)
Ceiling: at least 12,000 feet AGL
Clouds: scattered clouds at 5000 feet AGL
Weather: BR  (mist)

METAR text: OPRN 142100Z 00000KT 4000 BR SCT032 SCT070 10/09 Q1018 TEMPO 2500 BR RMK A3009
Conditions at: OPRN (ISLAMABAD (CIV/M, PK) observed 2100 UTC 14 February 2019
Temperature: 10.0°C (50°F)
Dewpoint: 9.0°C (48°F) [RH = 93%]
Pressure (altimeter): 30.06 inches Hg (1018.0 mb)
Winds: calm
Visibility: 2.49 miles (4.01 km)
Ceiling: at least 12,000 feet AGL
Clouds: scattered clouds at 3200 feet AGL
scattered clouds at 7000 feet AGL
Weather: BR  (mist)

METAR text: OPRN 142000Z 27004KT 7000 BKN025 SCT070 10/09 Q1018 NOSIG RMK A3009
Conditions at: OPRN (ISLAMABAD (CIV/M, PK) observed 2000 UTC 14 February 2019
Temperature: 10.0°C (50°F)
Dewpoint: 9.0°C (48°F) [RH = 93%]
Pressure (altimeter): 30.06 inches Hg (1018.0 mb)
Winds: from the W (270 degrees) at 5 MPH (4 knots; 2.1 m/s)
Visibility: 4 miles ( 7 km)
Ceiling: 2500 feet AGL
Clouds: broken clouds at 2500 feet AGL
scattered clouds at 7000 feet AGL
Weather: no significant weather observed at this time

METAR text: OPRN 141900Z 27004KT 7000 SCT026 BKN070 11/09 Q1018 NOSIG RMK A3009
Conditions at: OPRN (ISLAMABAD (CIV/M, PK) observed 1900 UTC 14 February 2019
Temperature: 11.0°C (52°F)
Dewpoint: 9.0°C (48°F) [RH = 87%]
Pressure (altimeter): 30.06 inches Hg (1018.0 mb)
Winds: from the W (270 degrees) at 5 MPH (4 knots; 2.1 m/s)
Visibility: 4 miles ( 7 km)
Ceiling: 7000 feet AGL
Clouds: scattered clouds at 2600 feet AGL
broken clouds at 7000 feet AGL
Weather: no significant weather observed at this time

Forecast for: OPRN (ISLAMABAD (CIV/M, PK)
Text: TAF OPRN 160330Z 1606/1712 27010KT CAVOK
Forecast period: 0600 to 1600 UTC 16 February 2019
Forecast type: FROM: standard forecast or significant change
Winds: from the W (270 degrees) at 12 MPH (10 knots; 5.1 m/s)
Visibility: 6 or more miles 10+ km)
Ceiling: unknown
Clouds: missing
Weather: NSW  (no significant weather)
Text: BECMG 1616/1618 03004KT 4000 HZ NSC
Forecast period: 1600 UTC 16 February 2019 to 0400 UTC 17 February 2019
Forecast type: BECOMING: Conditions expected to become as follows by 1800 UTC 16 February 2019
Winds: from the NNE (30 degrees) at 5 MPH (4 knots; 2.1 m/s)
Visibility: 2.49 miles (4.01 km)
Ceiling: unknown
Clouds: missing
Weather: HZ  (haze)
Text: TEMPO 1622/1704 2000 BR
Forecast period: 2200 UTC 16 February 2019 to 0400 UTC 17 February 2019
Forecast type: TEMPORARY: The following changes expected for less than half the time period
Visibility: 1.24 miles (2.00 km)
Ceiling: unknown
Clouds: missing
Weather: BR  (mist)
Text: BECMG 1704/1706 30010KT 5000 HZ FEW040 SCT100 BKN180
Forecast period: 0400 to 1200 UTC 17 February 2019
Forecast type: BECOMING: Conditions expected to become as follows by 0600 UTC 17 February 2019
Winds: from the WNW (300 degrees) at 12 MPH (10 knots; 5.1 m/s)
Visibility: 3 miles (5 km)
Ceiling: 18000 feet AGL
Clouds: few clouds at 4000 feet AGL
scattered clouds at 10000 feet AGL
broken clouds at 18000 feet AGL
Weather: HZ  (haze)